createdAt,value
2022-11-24T00:02:24.585Z,25.98
2022-11-24T00:04:51.311Z,19.10
2022-11-24T00:07:17.804Z,19.92
2022-11-24T00:09:44.391Z,25.80
2022-11-24T00:12:10.864Z,23.58
2022-11-24T00:14:37.351Z,18.50
2022-11-24T00:17:03.903Z,20.77
2022-11-24T00:19:30.488Z,19.48
2022-11-24T00:21:57.009Z,20.75
2022-11-24T00:24:23.493Z,18.38
2022-11-24T00:26:50.098Z,20.27
2022-11-24T00:29:16.652Z,26.98
2022-11-24T00:31:43.169Z,17.98
2022-11-24T00:34:14.270Z,16.27
2022-11-24T00:36:41.444Z,18.88
2022-11-24T00:39:11.725Z,21.42
2022-11-24T00:41:38.629Z,14.57
2022-11-24T00:44:05.544Z,21.63
2022-11-24T00:46:32.306Z,16.88
2022-11-24T00:49:00.321Z,16.75
2022-11-24T00:51:28.041Z,14.93
2022-11-24T00:53:55.476Z,13.98
2022-11-24T00:56:22.400Z,17.48
2022-11-24T00:58:48.890Z,17.75
2022-11-24T01:01:18.204Z,18.95
2022-11-24T01:03:46.709Z,15.40
2022-11-24T01:06:16.421Z,15.55
2022-11-24T01:08:43.347Z,24.33
2022-11-24T01:11:24.792Z,12.82
2022-11-24T01:13:59.533Z,18.38
2022-11-24T01:16:31.896Z,16.95
2022-11-24T01:18:59.763Z,14.45
2022-11-24T01:21:26.381Z,17.58
2022-11-24T01:23:53.187Z,16.77
2022-11-24T01:26:21.514Z,21.17
2022-11-24T01:28:55.620Z,19.60
2022-11-24T01:31:22.661Z,15.30
2022-11-24T01:33:49.195Z,19.42
2022-11-24T01:36:15.714Z,21.15
2022-11-24T01:38:42.206Z,14.35
2022-11-24T01:41:15.909Z,19.92
2022-11-24T01:43:43.595Z,19.98
2022-11-24T01:46:26.230Z,19.85
2022-11-24T01:49:12.536Z,14.18
2022-11-24T01:51:50.575Z,21.65
2022-11-24T01:54:22.797Z,16.10
2022-11-24T01:56:52.164Z,9.52
2022-11-24T01:59:19.914Z,8.40
2022-11-24T02:01:47.185Z,11.32
2022-11-24T02:04:16.324Z,14.52
2022-11-24T02:06:43.969Z,8.25
2022-11-24T02:09:34.250Z,11.38
2022-11-24T02:12:01.553Z,10.50
2022-11-24T02:14:28.472Z,9.50
2022-11-24T02:16:55.056Z,11.70
2022-11-24T02:19:39.480Z,11.15
2022-11-24T02:22:16.377Z,6.82
2022-11-24T02:24:52.663Z,6.20
2022-11-24T02:27:19.509Z,7.35
2022-11-24T02:29:46.211Z,2.50
2022-11-24T02:32:12.764Z,1.02
2022-11-24T02:34:39.311Z,0.88
2022-11-24T02:37:05.827Z,0.73
2022-11-24T02:39:34.047Z,1.00
2022-11-24T02:42:05.838Z,3.42
2022-11-24T02:44:42.132Z,2.08
2022-11-24T02:47:10.928Z,1.83
2022-11-24T02:49:37.805Z,7.00
2022-11-24T02:52:05.338Z,4.78
2022-11-24T02:54:32.594Z,8.77
2022-11-24T02:56:59.419Z,7.00
2022-11-24T02:59:26.166Z,10.15
2022-11-24T03:01:52.836Z,6.07
2022-11-24T03:04:19.319Z,8.52
2022-11-24T03:06:45.818Z,10.98
2022-11-24T03:09:12.330Z,11.52
2022-11-24T03:11:39.283Z,12.48
2022-11-24T03:14:06.587Z,16.13
2022-11-24T03:16:33.410Z,13.00
2022-11-24T03:19:00.240Z,13.63
2022-11-24T03:21:26.746Z,19.10
2022-11-24T03:23:53.341Z,16.55
2022-11-24T03:26:21.919Z,11.95
2022-11-24T03:28:48.414Z,19.10
2022-11-24T03:31:15.141Z,18.77
2022-11-24T03:33:41.643Z,15.00
2022-11-24T03:36:08.717Z,16.60
2022-11-24T03:38:35.328Z,15.50
2022-11-24T03:41:01.866Z,15.70
2022-11-24T03:43:28.370Z,14.30
2022-11-24T03:45:54.848Z,19.20
2022-11-24T03:48:21.623Z,18.15
2022-11-24T03:50:59.220Z,10.80
2022-11-24T03:53:28.238Z,16.65
2022-11-24T03:55:54.886Z,9.68
2022-11-24T03:58:21.488Z,12.15
2022-11-24T04:00:52.748Z,10.65
2022-11-24T04:03:19.811Z,7.85
2022-11-24T04:05:47.028Z,9.95
2022-11-24T04:08:14.088Z,7.75
2022-11-24T04:10:40.633Z,9.07
2022-11-24T04:13:17.972Z,8.50
2022-11-24T04:15:44.718Z,6.88
2022-11-24T04:18:12.309Z,6.68
2022-11-24T04:20:39.283Z,8.60
2022-11-24T04:23:05.982Z,8.32
2022-11-24T04:25:32.655Z,7.25
2022-11-24T04:27:59.287Z,3.53
2022-11-24T04:30:27.333Z,5.03
2022-11-24T04:32:53.939Z,7.65
2022-11-24T04:35:21.107Z,10.10
2022-11-24T04:37:47.627Z,5.88
2022-11-24T04:40:14.566Z,5.07
2022-11-24T04:42:41.206Z,6.20
2022-11-24T04:45:08.384Z,7.68
2022-11-24T04:47:35.009Z,5.53
2022-11-24T04:50:01.706Z,5.65
2022-11-24T04:52:29.961Z,5.45
2022-11-24T04:54:56.442Z,6.28
2022-11-24T04:57:25.313Z,8.93
2022-11-24T04:59:52.924Z,6.78
2022-11-24T05:02:20.316Z,4.97
2022-11-24T05:04:46.913Z,3.90
2022-11-24T05:07:18.291Z,4.22
2022-11-24T05:10:07.360Z,7.68
2022-11-24T05:12:33.856Z,9.68
2022-11-24T05:15:01.701Z,6.90
2022-11-24T05:17:30.727Z,7.50
2022-11-24T05:19:57.796Z,7.80
2022-11-24T05:22:24.464Z,8.70
2022-11-24T05:24:51.274Z,7.03
2022-11-24T05:27:17.770Z,8.55
2022-11-24T05:29:44.555Z,7.07
2022-11-24T05:32:11.209Z,8.27
2022-11-24T05:34:37.776Z,6.22
2022-11-24T05:37:04.354Z,7.47
2022-11-24T05:39:35.738Z,9.48
2022-11-24T05:42:30.408Z,7.40
2022-11-24T05:44:57.544Z,10.40
2022-11-24T05:47:24.344Z,7.72
2022-11-24T05:49:50.935Z,10.05
2022-11-24T05:52:17.526Z,7.85
2022-11-24T05:54:44.029Z,7.15
2022-11-24T05:57:10.573Z,8.30
2022-11-24T05:59:37.069Z,11.88
2022-11-24T06:02:03.733Z,8.88
2022-11-24T06:04:30.288Z,10.18
2022-11-24T06:06:56.831Z,9.93
2022-11-24T06:09:23.313Z,9.50
2022-11-24T06:11:49.942Z,11.85
2022-11-24T06:14:16.545Z,9.35
2022-11-24T06:16:43.125Z,12.50
2022-11-24T06:19:10.872Z,8.95
2022-11-24T06:21:37.474Z,10.13
2022-11-24T06:24:04.599Z,17.38
2022-11-24T06:26:31.091Z,13.35
2022-11-24T06:28:57.656Z,15.13
2022-11-24T06:31:24.235Z,10.20
2022-11-24T06:33:50.866Z,14.48
2022-11-24T06:36:17.490Z,10.48
2022-11-24T06:38:43.970Z,16.80
2022-11-24T06:41:13.962Z,14.27
2022-11-24T06:43:40.642Z,10.02
2022-11-24T06:46:07.453Z,16.42
2022-11-24T06:48:34.276Z,9.07
2022-11-24T06:51:02.526Z,9.93
2022-11-24T06:53:33.293Z,14.07
2022-11-24T06:56:01.055Z,13.25
2022-11-24T06:58:27.783Z,11.23
2022-11-24T07:00:54.512Z,11.77
2022-11-24T07:03:21.664Z,12.73
2022-11-24T07:05:48.356Z,11.90
2022-11-24T07:08:17.926Z,16.85
2022-11-24T07:10:44.815Z,13.45
2022-11-24T07:13:11.325Z,19.85
2022-11-24T07:15:37.857Z,13.57
2022-11-24T07:18:04.521Z,16.15
2022-11-24T07:20:31.020Z,14.85
2022-11-24T07:22:58.005Z,14.63
2022-11-24T07:25:25.337Z,11.38
2022-11-24T07:27:59.311Z,18.40
2022-11-24T07:30:27.277Z,16.17
2022-11-24T07:33:03.932Z,19.20
2022-11-24T07:35:30.840Z,16.65
2022-11-24T07:37:58.493Z,15.55
2022-11-24T07:40:26.959Z,15.98
2022-11-24T07:42:54.060Z,20.70
2022-11-24T07:45:20.582Z,20.77
2022-11-24T07:47:47.123Z,18.80
2022-11-24T07:50:13.749Z,16.13
2022-11-24T07:52:40.354Z,16.58
2022-11-24T07:55:07.936Z,12.93
2022-11-24T07:57:34.725Z,15.05
2022-11-24T08:00:01.350Z,19.30
2022-11-24T08:02:27.880Z,23.20
2022-11-24T08:04:54.432Z,19.27
2022-11-24T08:07:20.922Z,16.00
2022-11-24T08:09:47.472Z,12.88
2022-11-24T08:12:14.068Z,16.48
2022-11-24T08:14:40.535Z,18.50
2022-11-24T08:17:07.131Z,17.98
2022-11-24T08:19:34.816Z,19.60
2022-11-24T08:22:01.326Z,16.77
2022-11-24T08:24:27.805Z,13.40
2022-11-24T08:26:54.584Z,16.42
2022-11-24T08:29:21.124Z,13.20
2022-11-24T08:31:47.633Z,19.80
2022-11-24T08:34:14.116Z,15.60
2022-11-24T08:36:40.615Z,18.42
2022-11-24T08:39:07.131Z,12.20
2022-11-24T08:41:33.736Z,17.92
2022-11-24T08:44:00.269Z,14.18
2022-11-24T08:46:26.783Z,13.43
2022-11-24T08:48:54.546Z,12.13
2022-11-24T08:51:23.795Z,12.05
2022-11-24T08:53:54.209Z,12.50
2022-11-24T08:56:20.705Z,14.20
2022-11-24T08:58:47.208Z,14.35
2022-11-24T09:01:15.372Z,12.25
2022-11-24T09:03:48.599Z,11.95
2022-11-24T09:06:18.310Z,11.43
2022-11-24T09:08:44.833Z,15.55
2022-11-24T09:11:13.376Z,9.98
2022-11-24T09:13:40.417Z,13.93
2022-11-24T09:16:09.714Z,15.40
2022-11-24T09:18:36.497Z,14.43
2022-11-24T09:21:11.377Z,16.10
2022-11-24T09:23:38.258Z,14.13
2022-11-24T09:26:11.019Z,13.55
2022-11-24T09:28:37.875Z,17.40
2022-11-24T09:31:06.023Z,20.23
2022-11-24T09:33:33.237Z,12.50
2022-11-24T09:36:00.119Z,24.45
2022-11-24T09:38:27.315Z,17.42
2022-11-24T09:40:55.554Z,16.15
2022-11-24T09:43:36.469Z,14.65
2022-11-24T09:46:10.672Z,16.10
2022-11-24T09:48:40.923Z,17.42
2022-11-24T09:51:12.464Z,11.30
2022-11-24T09:54:08.364Z,15.25
2022-11-24T09:56:36.983Z,16.50
2022-11-24T09:59:16.308Z,18.23
2022-11-24T10:01:45.021Z,15.68
2022-11-24T10:04:29.898Z,13.68
2022-11-24T10:07:11.446Z,20.23
2022-11-24T10:09:56.482Z,18.08
2022-11-24T10:12:23.006Z,21.15
2022-11-24T10:15:16.586Z,14.95
2022-11-24T10:17:43.602Z,16.98
2022-11-24T10:20:22.574Z,15.00
2022-11-24T10:23:04.247Z,17.83
2022-11-24T10:25:40.322Z,15.85
2022-11-24T10:28:11.982Z,13.25
2022-11-24T10:30:38.632Z,13.98
2022-11-24T10:33:16.462Z,18.73
2022-11-24T10:35:48.930Z,17.65
2022-11-24T10:38:21.634Z,22.35
2022-11-24T10:40:59.609Z,18.75
2022-11-24T10:43:28.169Z,11.40
2022-11-24T10:45:58.767Z,20.58
2022-11-24T10:48:26.683Z,18.65
2022-11-24T10:50:54.936Z,14.80
2022-11-24T10:53:27.989Z,13.77
2022-11-24T10:55:54.456Z,19.80
2022-11-24T10:58:37.606Z,18.20
2022-11-24T11:01:28.680Z,26.70
2022-11-24T11:03:57.870Z,20.45
2022-11-24T11:06:27.083Z,16.30
2022-11-24T11:09:13.506Z,15.07
2022-11-24T11:11:41.579Z,25.95
2022-11-24T11:14:10.604Z,17.50
2022-11-24T11:16:38.764Z,18.35
2022-11-24T11:19:47.806Z,13.15
2022-11-24T11:22:16.854Z,22.98
2022-11-24T11:24:45.251Z,14.57
2022-11-24T11:27:18.913Z,14.75
2022-11-24T11:35:19.269Z,16.55
2022-11-24T11:37:47.253Z,18.70
2022-11-24T11:40:17.963Z,18.25
2022-11-24T11:43:02.549Z,20.73
2022-11-24T11:45:43.366Z,16.05
2022-11-24T11:48:27.657Z,12.88
2022-11-24T11:51:22.361Z,15.93
2022-11-24T11:54:10.407Z,21.92
2022-11-24T11:56:46.083Z,18.02
2022-11-24T11:59:30.977Z,16.90
2022-11-24T12:02:32.765Z,18.17
2022-11-24T12:05:20.472Z,12.07
2022-11-24T12:08:11.655Z,18.83
2022-11-24T12:11:09.252Z,16.08
2022-11-24T12:13:54.043Z,30.85
2022-11-24T12:16:48.043Z,23.23
2022-11-24T12:19:36.757Z,23.90
2022-11-24T12:22:18.773Z,26.15
2022-11-24T12:25:14.411Z,21.33
2022-11-24T12:27:50.626Z,21.48
2022-11-24T12:30:18.444Z,14.80
2022-11-24T12:32:47.931Z,14.52
2022-11-24T12:35:14.652Z,15.77
2022-11-24T12:38:11.419Z,14.95
2022-11-24T12:40:46.446Z,15.73
2022-11-24T12:43:20.082Z,11.63
2022-11-24T12:45:55.867Z,18.00
2022-11-24T12:48:45.750Z,16.35
2022-11-24T12:51:20.990Z,18.02
2022-11-24T12:56:16.372Z,13.63
2022-11-24T12:58:51.902Z,13.60
2022-11-24T13:01:39.311Z,17.08
2022-11-24T13:04:29.501Z,13.48
2022-11-24T13:07:21.471Z,15.82
2022-11-24T13:10:40.436Z,15.05
2022-11-24T13:13:12.747Z,17.65
2022-11-24T13:16:28.561Z,17.92
2022-11-24T13:18:47.382Z,16.77
2022-11-24T13:21:42.893Z,13.68
2022-11-24T13:24:19.498Z,19.00
2022-11-24T13:26:52.418Z,11.95
2022-11-24T13:29:28.194Z,16.80
2022-11-24T13:32:04.551Z,16.83
2022-11-24T13:34:40.391Z,17.25
2022-11-24T13:37:31.167Z,13.75
2022-11-24T13:40:03.782Z,13.63
2022-11-24T13:42:42.403Z,14.25
2022-11-24T13:45:39.758Z,16.08
2022-11-24T13:48:18.889Z,15.00
2022-11-24T13:50:51.979Z,15.45
2022-11-24T13:53:40.450Z,21.35
2022-11-24T13:56:22.688Z,18.98
2022-11-24T13:58:58.035Z,16.35
2022-11-24T14:01:28.427Z,16.05
2022-11-24T14:04:32.319Z,15.43
2022-11-24T14:07:07.815Z,17.77
2022-11-24T14:09:44.251Z,16.38
2022-11-24T14:12:17.747Z,18.55
2022-11-24T14:14:46.055Z,18.38
2022-11-24T14:17:22.689Z,16.20
2022-11-24T14:19:51.381Z,12.43
2022-11-24T14:22:19.641Z,17.45
2022-11-24T14:24:52.275Z,20.30
2022-11-24T14:27:30.816Z,17.30
2022-11-24T14:30:00.096Z,13.25
2022-11-24T14:32:26.984Z,14.93
2022-11-24T14:34:54.442Z,21.17
2022-11-24T14:37:21.357Z,12.68
2022-11-24T14:39:47.902Z,15.25
2022-11-24T14:42:27.804Z,15.48
2022-11-24T14:44:54.308Z,16.88
2022-11-24T14:47:32.621Z,17.17
2022-11-24T14:50:29.076Z,17.58
2022-11-24T14:52:59.043Z,20.25
2022-11-24T14:55:30.410Z,14.07
2022-11-24T14:57:57.865Z,13.40
2022-11-24T15:00:24.298Z,15.60
2022-11-24T15:03:16.072Z,13.55
2022-11-24T15:05:56.287Z,14.27
2022-11-24T15:08:25.025Z,17.13
2022-11-24T15:10:58.086Z,20.10
2022-11-24T15:13:25.147Z,21.75
2022-11-24T15:16:03.611Z,17.35
2022-11-24T15:18:41.090Z,19.80
2022-11-24T15:21:07.876Z,16.17
2022-11-24T15:23:35.192Z,17.48
2022-11-24T15:26:01.649Z,15.63
2022-11-24T15:28:29.675Z,21.08
2022-11-24T15:31:02.806Z,15.82
2022-11-24T15:33:29.887Z,13.30
2022-11-24T15:35:56.880Z,17.50
2022-11-24T15:38:23.716Z,15.02
2022-11-24T15:40:55.060Z,21.52
2022-11-24T15:43:31.028Z,14.75
2022-11-24T15:45:58.677Z,17.20
2022-11-24T15:48:25.581Z,18.00
2022-11-24T15:50:53.123Z,17.77
2022-11-24T15:53:25.735Z,15.85
2022-11-24T15:55:52.812Z,18.77
2022-11-24T15:58:19.648Z,13.77
2022-11-24T16:00:46.400Z,18.45
2022-11-24T16:03:44.941Z,20.30
2022-11-24T16:05:59.591Z,15.00
2022-11-24T16:08:26.097Z,21.95
2022-11-24T16:10:52.589Z,20.58
2022-11-24T16:13:19.190Z,14.25
2022-11-24T16:15:45.975Z,21.85
2022-11-24T16:18:13.936Z,17.83
2022-11-24T16:20:40.530Z,24.45
2022-11-24T16:23:07.069Z,20.92
2022-11-24T16:25:33.653Z,18.17
2022-11-24T16:28:00.120Z,18.10
2022-11-24T16:30:26.633Z,18.83
2022-11-24T16:32:53.260Z,17.88
2022-11-24T16:35:20.098Z,18.15
2022-11-24T16:37:46.690Z,19.52
2022-11-24T16:40:13.375Z,19.15
2022-11-24T16:42:39.866Z,16.13
2022-11-24T16:45:06.955Z,19.50
2022-11-24T16:47:39.671Z,15.63
2022-11-24T16:50:07.762Z,20.55
2022-11-24T16:52:34.246Z,13.35
2022-11-24T16:55:01.661Z,18.40
2022-11-24T16:57:28.206Z,19.35
2022-11-24T16:59:54.688Z,19.27
2022-11-24T17:02:21.270Z,14.20
2022-11-24T17:04:49.755Z,18.00
2022-11-24T17:07:16.350Z,18.00
2022-11-24T17:09:42.878Z,20.50
2022-11-24T17:12:09.364Z,16.08
2022-11-24T17:14:36.955Z,16.70
2022-11-24T17:17:06.644Z,20.40
2022-11-24T17:19:33.200Z,20.83
2022-11-24T17:21:59.903Z,14.50
2022-11-24T17:24:26.547Z,23.65
2022-11-24T17:26:53.290Z,18.30
2022-11-24T17:29:19.912Z,19.13
2022-11-24T17:31:46.669Z,19.58
2022-11-24T17:34:13.314Z,15.45
2022-11-24T17:36:41.417Z,20.88
2022-11-24T17:39:08.039Z,18.45
2022-11-24T17:41:34.835Z,21.92
2022-11-24T17:44:01.479Z,21.52
2022-11-24T17:46:29.177Z,16.50
2022-11-24T17:48:56.050Z,22.23
2022-11-24T17:51:24.177Z,18.50
2022-11-24T17:53:52.254Z,22.00
2022-11-24T17:56:22.914Z,15.90
2022-11-24T17:58:52.234Z,28.08
2022-11-24T18:01:19.307Z,20.20
2022-11-24T18:03:48.988Z,16.70
2022-11-24T18:06:19.799Z,21.02
2022-11-24T18:08:47.049Z,17.60
2022-11-24T18:11:32.040Z,25.00
2022-11-24T18:14:02.920Z,13.23
2022-11-24T18:16:31.590Z,20.33
2022-11-24T18:19:08.285Z,15.70
2022-11-24T18:21:35.140Z,12.52
2022-11-24T18:24:01.787Z,15.70
2022-11-24T18:26:28.672Z,17.08
2022-11-24T18:28:55.251Z,20.25
2022-11-24T18:31:22.491Z,17.50
2022-11-24T18:33:49.112Z,20.95
2022-11-24T18:36:18.947Z,16.65
2022-11-24T18:38:46.015Z,21.58
2022-11-24T18:41:14.003Z,15.35
2022-11-24T18:43:40.847Z,17.45
2022-11-24T18:46:15.320Z,16.33
2022-11-24T18:48:42.644Z,14.18
2022-11-24T18:51:14.294Z,15.07
2022-11-24T18:53:42.437Z,18.30
2022-11-24T18:56:15.744Z,21.27
2022-11-24T18:58:42.580Z,18.42
2022-11-24T19:01:17.359Z,19.17
2022-11-24T19:03:49.508Z,15.13
2022-11-24T19:06:33.534Z,17.20
2022-11-24T19:09:02.640Z,21.77
2022-11-24T19:11:37.506Z,20.33
2022-11-24T19:14:05.343Z,15.13
2022-11-24T19:16:32.063Z,15.73
2022-11-24T19:19:00.169Z,14.90
2022-11-24T19:21:27.842Z,15.63
2022-11-24T19:23:55.776Z,20.42
2022-11-24T19:26:24.321Z,19.15
2022-11-24T19:28:50.864Z,20.02
2022-11-24T19:31:20.190Z,16.50
2022-11-24T19:33:47.049Z,19.02
2022-11-24T19:36:19.120Z,19.67
2022-11-24T19:38:56.162Z,21.00
2022-11-24T19:41:25.193Z,19.98
2022-11-24T19:43:54.784Z,16.40
2022-11-24T19:46:22.951Z,19.42
2022-11-24T19:48:50.860Z,13.73
2022-11-24T19:51:22.446Z,15.73
2022-11-24T19:53:48.949Z,18.02
2022-11-24T19:56:18.379Z,17.67
2022-11-24T19:58:45.581Z,17.40
2022-11-24T20:01:14.423Z,16.27
2022-11-24T20:03:41.722Z,21.92
2022-11-24T20:06:10.120Z,18.45
2022-11-24T20:08:37.510Z,15.52
2022-11-24T20:11:12.343Z,17.33
2022-11-24T20:13:40.322Z,26.02
2022-11-24T20:16:12.702Z,17.20
2022-11-24T20:18:42.391Z,19.67
2022-11-24T20:21:10.504Z,18.08
2022-11-24T20:23:37.006Z,17.20
2022-11-24T20:26:08.946Z,17.35
2022-11-24T20:28:35.486Z,25.60
2022-11-24T20:31:07.540Z,18.13
2022-11-24T20:33:35.517Z,18.85
2022-11-24T20:36:10.672Z,17.80
2022-11-24T20:38:38.322Z,19.40
2022-11-24T20:41:09.603Z,16.25
2022-11-24T20:43:37.124Z,17.33
2022-11-24T20:46:12.148Z,15.52
2022-11-24T20:48:38.922Z,15.35
2022-11-24T20:51:10.496Z,18.08
2022-11-24T20:53:37.358Z,18.67
2022-11-24T20:56:06.496Z,23.42
2022-11-24T20:58:34.628Z,17.98
2022-11-24T21:01:11.540Z,20.08
2022-11-24T21:03:43.088Z,14.48
2022-11-24T21:06:11.201Z,14.80
2022-11-24T21:08:39.038Z,21.58
2022-11-24T21:11:06.948Z,20.73
2022-11-24T21:13:34.734Z,20.38
2022-11-24T21:16:06.613Z,20.50
2022-11-24T21:18:33.831Z,18.77
2022-11-24T21:21:00.365Z,25.55
2022-11-24T21:23:26.883Z,16.08
2022-11-24T21:25:53.360Z,16.52
2022-11-24T21:28:19.846Z,13.38
2022-11-24T21:30:46.321Z,24.90
2022-11-24T21:33:12.864Z,15.20
2022-11-24T21:35:39.502Z,18.35
2022-11-24T21:38:06.139Z,19.85
2022-11-24T21:40:32.634Z,21.10
2022-11-24T21:42:59.721Z,21.05
2022-11-24T21:45:29.138Z,15.10
2022-11-24T21:48:02.119Z,22.92
2022-11-24T21:50:28.726Z,16.88
2022-11-24T21:52:59.269Z,17.27
2022-11-24T21:55:28.650Z,19.55
2022-11-24T21:57:55.128Z,16.95
2022-11-24T22:00:21.716Z,15.50
2022-11-24T22:02:48.351Z,18.52
2022-11-24T22:05:14.879Z,20.35
2022-11-24T22:07:41.548Z,22.02
2022-11-24T22:10:08.766Z,21.52
2022-11-24T22:12:35.266Z,15.48
2022-11-24T22:15:01.787Z,18.48
2022-11-24T22:17:30.828Z,17.88
2022-11-24T22:19:57.326Z,19.55
2022-11-24T22:22:23.807Z,14.95
2022-11-24T22:24:50.341Z,19.75
2022-11-24T22:27:16.848Z,19.55
2022-11-24T22:29:43.312Z,19.67
2022-11-24T22:32:09.771Z,18.40
2022-11-24T22:34:36.305Z,15.60
2022-11-24T22:37:03.000Z,19.80
2022-11-24T22:39:29.506Z,22.55
2022-11-24T22:41:55.994Z,16.63
2022-11-24T22:44:22.482Z,18.63
2022-11-24T22:46:48.970Z,21.23
2022-11-24T22:49:15.399Z,20.02
2022-11-24T22:51:41.891Z,21.13
2022-11-24T22:54:11.751Z,28.10
2022-11-24T22:56:38.427Z,26.67
2022-11-24T22:59:05.077Z,19.40
2022-11-24T23:01:33.627Z,26.60
2022-11-24T23:04:00.320Z,22.42
2022-11-24T23:06:28.663Z,18.85
2022-11-24T23:08:55.686Z,21.02
2022-11-24T23:11:31.676Z,22.17
2022-11-24T23:14:01.946Z,19.50
2022-11-24T23:16:29.237Z,21.90
2022-11-24T23:18:56.133Z,31.00
2022-11-24T23:21:27.567Z,19.58
2022-11-24T23:23:54.397Z,21.45
2022-11-24T23:26:23.569Z,21.33
2022-11-24T23:28:50.690Z,24.23
2022-11-24T23:31:19.577Z,24.60
2022-11-24T23:33:46.501Z,24.95
2022-11-24T23:36:14.255Z,22.52
2022-11-24T23:38:41.169Z,24.45
2022-11-24T23:41:10.877Z,28.88
2022-11-24T23:43:39.206Z,29.73
2022-11-24T23:46:11.612Z,24.92
2022-11-24T23:48:38.878Z,27.80
2022-11-24T23:51:12.375Z,20.67
2022-11-24T23:53:39.382Z,24.20
2022-11-24T23:56:06.212Z,23.33
2022-11-24T23:58:33.035Z,18.77
